sensor_id;sensor_type;location;lat;lon;timestamp;pressure;altitude;pressure_sealevel;temperature;humidity
51081;BME280;37130;55.670;37.596;2022-09-23T00:01:02;99372.47;;;10.73;96.67
51081;BME280;37130;55.670;37.596;2022-09-23T00:03:30;99369.59;;;10.78;96.85
51081;BME280;37130;55.670;37.596;2022-09-23T00:06:02;99370.13;;;10.85;97.18
51081;BME280;37130;55.670;37.596;2022-09-23T00:08:30;99372.63;;;10.88;96.38
51081;BME280;37130;55.670;37.596;2022-09-23T00:11:14;99364.66;;;10.88;95.93
51081;BME280;37130;55.670;37.596;2022-09-23T00:13:42;99360.06;;;10.91;96.25
51081;BME280;37130;55.670;37.596;2022-09-23T00:16:12;99369.41;;;10.99;96.23
51081;BME280;37130;55.670;37.596;2022-09-23T00:18:40;99363.88;;;11.03;95.84
51081;BME280;37130;55.670;37.596;2022-09-23T00:21:09;99369.78;;;11.08;96.10
51081;BME280;37130;55.670;37.596;2022-09-23T00:23:37;99366.69;;;11.16;95.90
51081;BME280;37130;55.670;37.596;2022-09-23T00:26:05;99368.41;;;11.17;95.51
51081;BME280;37130;55.670;37.596;2022-09-23T00:28:32;99363.19;;;11.15;95.63
51081;BME280;37130;55.670;37.596;2022-09-23T00:31:01;99371.13;;;11.15;95.70
51081;BME280;37130;55.670;37.596;2022-09-23T00:33:28;99371.25;;;11.14;95.49
51081;BME280;37130;55.670;37.596;2022-09-23T00:36:03;99370.22;;;11.16;95.64
51081;BME280;37130;55.670;37.596;2022-09-23T00:38:31;99374.22;;;11.24;95.52
51081;BME280;37130;55.670;37.596;2022-09-23T00:41:00;99362.38;;;11.31;95.34
51081;BME280;37130;55.670;37.596;2022-09-23T00:46:15;99379.22;;;11.30;95.35
51081;BME280;37130;55.670;37.596;2022-09-23T00:48:44;99373.22;;;11.26;95.13
51081;BME280;37130;55.670;37.596;2022-09-23T00:51:13;99377.84;;;11.23;95.18
51081;BME280;37130;55.670;37.596;2022-09-23T00:53:44;99376.88;;;11.24;95.07
51081;BME280;37130;55.670;37.596;2022-09-23T00:56:13;99373.72;;;11.17;94.88
51081;BME280;37130;55.670;37.596;2022-09-23T00:58:42;99382.16;;;11.08;94.86
51081;BME280;37130;55.670;37.596;2022-09-23T01:01:10;99378.19;;;10.99;94.80
51081;BME280;37130;55.670;37.596;2022-09-23T01:03:40;99383.06;;;10.91;94.84
51081;BME280;37130;55.670;37.596;2022-09-23T01:06:09;99382.19;;;10.90;94.93
51081;BME280;37130;55.670;37.596;2022-09-23T01:08:37;99382.19;;;10.90;94.61
51081;BME280;37130;55.670;37.596;2022-09-23T01:16:16;99382.28;;;10.89;94.18
51081;BME280;37130;55.670;37.596;2022-09-23T01:26:28;99365.75;;;10.84;93.71
51081;BME280;37130;55.670;37.596;2022-09-23T01:34:06;99381.59;;;10.68;93.13
51081;BME280;37130;55.670;37.596;2022-09-23T01:39:21;99380.91;;;10.64;93.86
51081;BME280;37130;55.670;37.596;2022-09-23T01:44:40;99388.63;;;10.69;93.09
51081;BME280;37130;55.670;37.596;2022-09-23T01:47:11;99383.47;;;10.66;93.38
51081;BME280;37130;55.670;37.596;2022-09-23T01:52:30;99390.56;;;10.65;93.04
51081;BME280;37130;55.670;37.596;2022-09-23T01:55:06;99386.22;;;10.64;93.68
51081;BME280;37130;55.670;37.596;2022-09-23T01:57:45;99387.06;;;10.65;92.90
51081;BME280;37130;55.670;37.596;2022-09-23T02:00:15;99387.91;;;10.65;93.48
51081;BME280;37130;55.670;37.596;2022-09-23T02:02:55;99387.75;;;10.68;93.40
51081;BME280;37130;55.670;37.596;2022-09-23T02:05:29;99386.88;;;10.68;93.47
51081;BME280;37130;55.670;37.596;2022-09-23T02:08:04;99397.94;;;10.76;93.11
51081;BME280;37130;55.670;37.596;2022-09-23T02:10:44;99388.19;;;10.77;93.16
51081;BME280;37130;55.670;37.596;2022-09-23T02:13:15;99391.97;;;10.72;92.65
51081;BME280;37130;55.670;37.596;2022-09-23T02:15:45;99397.25;;;10.72;92.92
51081;BME280;37130;55.670;37.596;2022-09-23T02:18:16;99389.22;;;10.74;93.03
51081;BME280;37130;55.670;37.596;2022-09-23T02:20:46;99381.97;;;10.78;92.95
51081;BME280;37130;55.670;37.596;2022-09-23T02:23:21;99387.13;;;10.81;92.80
51081;BME280;37130;55.670;37.596;2022-09-23T02:25:59;99392.47;;;10.79;92.68
51081;BME280;37130;55.670;37.596;2022-09-23T02:31:21;99386.50;;;10.75;93.19
51081;BME280;37130;55.670;37.596;2022-09-23T02:33:59;99388.81;;;10.82;92.58
51081;BME280;37130;55.670;37.596;2022-09-23T02:36:29;99386.03;;;10.85;92.51
51081;BME280;37130;55.670;37.596;2022-09-23T02:39:02;99383.28;;;10.86;92.71
51081;BME280;37130;55.670;37.596;2022-09-23T02:41:31;99386.09;;;10.83;92.05
51081;BME280;37130;55.670;37.596;2022-09-23T02:44:07;99389.09;;;10.77;92.58
51081;BME280;37130;55.670;37.596;2022-09-23T02:46:36;99381.25;;;10.74;92.31
51081;BME280;37130;55.670;37.596;2022-09-23T02:49:14;99382.28;;;10.71;92.49
51081;BME280;37130;55.670;37.596;2022-09-23T02:51:43;99380.75;;;10.67;92.14
51081;BME280;37130;55.670;37.596;2022-09-23T02:54:12;99379.03;;;10.66;92.08
51081;BME280;37130;55.670;37.596;2022-09-23T02:56:41;99383.38;;;10.67;92.27
51081;BME280;37130;55.670;37.596;2022-09-23T02:59:08;99386.03;;;10.67;92.35
51081;BME280;37130;55.670;37.596;2022-09-23T03:07:16;99379.97;;;10.65;92.21
51081;BME280;37130;55.670;37.596;2022-09-23T03:12:23;99387.69;;;10.70;92.28
51081;BME280;37130;55.670;37.596;2022-09-23T03:20:11;99391.19;;;10.70;91.87
51081;BME280;37130;55.670;37.596;2022-09-23T03:22:45;99386.81;;;10.69;91.50
51081;BME280;37130;55.670;37.596;2022-09-23T03:25:15;99391.09;;;10.72;91.93
51081;BME280;37130;55.670;37.596;2022-09-23T03:27:45;99388.91;;;10.80;92.04
51081;BME280;37130;55.670;37.596;2022-09-23T03:30:12;99392.81;;;10.90;92.08
51081;BME280;37130;55.670;37.596;2022-09-23T03:32:41;99393.09;;;11.02;91.57
51081;BME280;37130;55.670;37.596;2022-09-23T03:35:10;99393.69;;;11.07;91.66
51081;BME280;37130;55.670;37.596;2022-09-23T03:37:39;99391.72;;;11.10;91.64
51081;BME280;37130;55.670;37.596;2022-09-23T03:42:36;99378.66;;;11.07;91.04
51081;BME280;37130;55.670;37.596;2022-09-23T03:45:05;99384.81;;;11.08;91.41
51081;BME280;37130;55.670;37.596;2022-09-23T03:47:35;99379.44;;;11.09;91.74
51081;BME280;37130;55.670;37.596;2022-09-23T03:50:05;99378.66;;;11.07;91.77
51081;BME280;37130;55.670;37.596;2022-09-23T03:52:32;99381.47;;;11.04;91.56
51081;BME280;37130;55.670;37.596;2022-09-23T03:55:00;99373.69;;;11.01;91.42
51081;BME280;37130;55.670;37.596;2022-09-23T03:57:28;99372.13;;;10.97;91.39
51081;BME280;37130;55.670;37.596;2022-09-23T03:59:55;99369.72;;;10.92;91.46
51081;BME280;37130;55.670;37.596;2022-09-23T04:02:23;99369.97;;;10.88;91.48
51081;BME280;37130;55.670;37.596;2022-09-23T04:04:51;99366.72;;;10.83;91.25
51081;BME280;37130;55.670;37.596;2022-09-23T04:07:19;99375.56;;;10.82;90.77
51081;BME280;37130;55.670;37.596;2022-09-23T04:09:46;99368.41;;;10.84;91.14
51081;BME280;37130;55.670;37.596;2022-09-23T04:12:14;99362.88;;;10.88;90.80
51081;BME280;37130;55.670;37.596;2022-09-23T04:14:42;99369.19;;;10.86;91.19
51081;BME280;37130;55.670;37.596;2022-09-23T04:17:09;99367.63;;;10.82;91.12
51081;BME280;37130;55.670;37.596;2022-09-23T04:19:37;99375.66;;;10.80;91.22
51081;BME280;37130;55.670;37.596;2022-09-23T04:22:05;99379.16;;;10.81;91.04
51081;BME280;37130;55.670;37.596;2022-09-23T04:24:32;99359.94;;;10.77;90.48
51081;BME280;37130;55.670;37.596;2022-09-23T04:27:00;99360.78;;;10.78;90.33
51081;BME280;37130;55.670;37.596;2022-09-23T04:29:28;99359.78;;;10.80;90.16
51081;BME280;37130;55.670;37.596;2022-09-23T04:31:55;99349.56;;;10.90;90.42
51081;BME280;37130;55.670;37.596;2022-09-23T04:34:23;99350.06;;;10.96;90.12
51081;BME280;37130;55.670;37.596;2022-09-23T04:36:50;99342.56;;;11.05;89.62
51081;BME280;37130;55.670;37.596;2022-09-23T04:39:18;99346.78;;;11.09;89.68
51081;BME280;37130;55.670;37.596;2022-09-23T04:41:45;99345.94;;;11.08;89.51
51081;BME280;37130;55.670;37.596;2022-09-23T04:44:13;99340.63;;;11.08;89.48
51081;BME280;37130;55.670;37.596;2022-09-23T04:46:41;99339.06;;;11.04;89.28
51081;BME280;37130;55.670;37.596;2022-09-23T04:49:09;99342.31;;;11.09;89.45
51081;BME280;37130;55.670;37.596;2022-09-23T04:51:37;99334.03;;;11.15;89.34
51081;BME280;37130;55.670;37.596;2022-09-23T04:54:06;99266.09;;;10.81;89.15
51081;BME280;37130;55.670;37.596;2022-09-23T04:56:33;99334.66;;;11.36;89.10
51081;BME280;37130;55.670;37.596;2022-09-23T04:59:01;99329.53;;;11.49;88.84
51081;BME280;37130;55.670;37.596;2022-09-23T05:01:29;99334.06;;;11.63;88.57
51081;BME280;37130;55.670;37.596;2022-09-23T05:03:58;99342.47;;;11.71;88.33
51081;BME280;37130;55.670;37.596;2022-09-23T05:06:28;99343.16;;;11.91;88.24
51081;BME280;37130;55.670;37.596;2022-09-23T05:08:57;99344.41;;;11.99;87.89
51081;BME280;37130;55.670;37.596;2022-09-23T05:11:25;99342.16;;;12.07;87.76
51081;BME280;37130;55.670;37.596;2022-09-23T05:13:53;99344.97;;;12.20;87.91
51081;BME280;37130;55.670;37.596;2022-09-23T05:16:21;99342.72;;;12.28;87.35
51081;BME280;37130;55.670;37.596;2022-09-23T05:18:51;99344.88;;;12.22;87.46
51081;BME280;37130;55.670;37.596;2022-09-23T05:21:20;99340.25;;;12.25;87.53
51081;BME280;37130;55.670;37.596;2022-09-23T05:23:48;99345.66;;;12.24;87.28
51081;BME280;37130;55.670;37.596;2022-09-23T05:26:15;99345.47;;;12.27;87.26
51081;BME280;37130;55.670;37.596;2022-09-23T05:28:43;99336.38;;;12.31;87.09
51081;BME280;37130;55.670;37.596;2022-09-23T05:31:11;99345.22;;;12.46;86.79
51081;BME280;37130;55.670;37.596;2022-09-23T05:33:47;99342.13;;;12.54;86.29
51081;BME280;37130;55.670;37.596;2022-09-23T05:36:14;99342.25;;;12.66;86.57
51081;BME280;37130;55.670;37.596;2022-09-23T05:38:46;99341.22;;;12.83;86.13
51081;BME280;37130;55.670;37.596;2022-09-23T05:41:15;99349.47;;;12.93;85.23
51081;BME280;37130;55.670;37.596;2022-09-23T05:43:42;99348.13;;;12.86;84.01
51081;BME280;37130;55.670;37.596;2022-09-23T05:46:14;99342.06;;;13.12;84.50
51081;BME280;37130;55.670;37.596;2022-09-23T05:48:41;99340.53;;;13.93;84.76
51081;BME280;37130;55.670;37.596;2022-09-23T05:51:18;99340.13;;;15.54;83.02
51081;BME280;37130;55.670;37.596;2022-09-23T05:53:46;99344.88;;;16.47;81.36
51081;BME280;37130;55.670;37.596;2022-09-23T05:56:15;99344.19;;;16.56;80.83
51081;BME280;37130;55.670;37.596;2022-09-23T05:58:43;99338.84;;;16.56;81.11
51081;BME280;37130;55.670;37.596;2022-09-23T06:01:11;99349.94;;;16.38;81.31
51081;BME280;37130;55.670;37.596;2022-09-23T06:03:40;99346.22;;;16.17;80.93
51081;BME280;37130;55.670;37.596;2022-09-23T06:06:10;99340.88;;;15.93;80.92
51081;BME280;37130;55.670;37.596;2022-09-23T06:08:38;99347.09;;;15.44;80.63
51081;BME280;37130;55.670;37.596;2022-09-23T06:11:06;99347.56;;;14.99;81.33
51081;BME280;37130;55.670;37.596;2022-09-23T06:13:34;99348.81;;;14.55;81.59
51081;BME280;37130;55.670;37.596;2022-09-23T06:16:05;99337.19;;;14.16;81.78
51081;BME280;37130;55.670;37.596;2022-09-23T06:18:34;99337.31;;;13.88;81.86
51081;BME280;37130;55.670;37.596;2022-09-23T06:21:01;99340.38;;;13.81;82.41
51081;BME280;37130;55.670;37.596;2022-09-23T06:23:29;99342.69;;;13.73;82.02
51081;BME280;37130;55.670;37.596;2022-09-23T06:26:00;99343.28;;;13.64;81.34
51081;BME280;37130;55.670;37.596;2022-09-23T06:28:28;99340.13;;;13.72;81.21
51081;BME280;37130;55.670;37.596;2022-09-23T06:31:00;99354.03;;;13.90;81.20
51081;BME280;37130;55.670;37.596;2022-09-23T06:33:29;99361.41;;;13.99;80.85
51081;BME280;37130;55.670;37.596;2022-09-23T06:36:03;99364.44;;;14.07;80.67
51081;BME280;37130;55.670;37.596;2022-09-23T06:38:31;99365.38;;;14.06;80.11
51081;BME280;37130;55.670;37.596;2022-09-23T06:41:02;99369.63;;;14.23;80.58
51081;BME280;37130;55.670;37.596;2022-09-23T06:43:29;99360.81;;;14.48;79.75
51081;BME280;37130;55.670;37.596;2022-09-23T06:45:57;99360.34;;;14.56;79.36
51081;BME280;37130;55.670;37.596;2022-09-23T06:48:26;99362.91;;;14.57;79.57
51081;BME280;37130;55.670;37.596;2022-09-23T06:50:56;99355.16;;;14.40;79.75
51081;BME280;37130;55.670;37.596;2022-09-23T06:53:24;99357.41;;;14.33;79.75
51081;BME280;37130;55.670;37.596;2022-09-23T06:56:01;99353.13;;;14.31;79.55
51081;BME280;37130;55.670;37.596;2022-09-23T06:58:30;99352.16;;;14.32;79.28
51081;BME280;37130;55.670;37.596;2022-09-23T07:01:32;99350.78;;;14.39;79.14
51081;BME280;37130;55.670;37.596;2022-09-23T07:03:52;99341.91;;;14.25;79.18
51081;BME280;37130;55.670;37.596;2022-09-23T07:06:19;99344.72;;;13.97;79.15
51081;BME280;37130;55.670;37.596;2022-09-23T07:08:47;99357.41;;;13.79;79.89
51081;BME280;37130;55.670;37.596;2022-09-23T07:11:14;99350.91;;;13.56;79.58
51081;BME280;37130;55.670;37.596;2022-09-23T07:13:45;99350.66;;;13.32;79.62
51081;BME280;37130;55.670;37.596;2022-09-23T07:16:12;99333.81;;;13.17;80.15
51081;BME280;37130;55.670;37.596;2022-09-23T07:18:40;99340.75;;;13.05;79.76
51081;BME280;37130;55.670;37.596;2022-09-23T07:21:09;99347.41;;;12.98;79.57
51081;BME280;37130;55.670;37.596;2022-09-23T07:23:42;99349.41;;;12.94;79.70
51081;BME280;37130;55.670;37.596;2022-09-23T07:26:09;99342.72;;;13.02;79.50
51081;BME280;37130;55.670;37.596;2022-09-23T07:28:36;99341.91;;;13.15;79.46
51081;BME280;37130;55.670;37.596;2022-09-23T07:31:05;99342.28;;;13.24;79.26
51081;BME280;37130;55.670;37.596;2022-09-23T07:33:34;99341.91;;;13.30;78.81
51081;BME280;37130;55.670;37.596;2022-09-23T07:36:03;99340.94;;;13.16;78.79
51081;BME280;37130;55.670;37.596;2022-09-23T07:38:31;99339.97;;;13.18;78.82
51081;BME280;37130;55.670;37.596;2022-09-23T07:41:05;99335.34;;;13.35;78.36
51081;BME280;37130;55.670;37.596;2022-09-23T07:43:33;99331.00;;;13.62;77.89
51081;BME280;37130;55.670;37.596;2022-09-23T07:46:03;99336.56;;;13.86;78.05
51081;BME280;37130;55.670;37.596;2022-09-23T07:48:31;99334.91;;;13.97;77.74
51081;BME280;37130;55.670;37.596;2022-09-23T07:51:10;99345.97;;;13.91;77.14
51081;BME280;37130;55.670;37.596;2022-09-23T07:53:38;99346.16;;;13.88;77.11
51081;BME280;37130;55.670;37.596;2022-09-23T07:56:06;99328.72;;;13.97;77.00
51081;BME280;37130;55.670;37.596;2022-09-23T07:58:33;99330.38;;;14.12;77.05
51081;BME280;37130;55.670;37.596;2022-09-23T08:01:04;99344.84;;;14.08;76.48
51081;BME280;37130;55.670;37.596;2022-09-23T08:03:32;99331.34;;;13.84;76.50
51081;BME280;37130;55.670;37.596;2022-09-23T08:06:03;99336.81;;;13.68;76.74
51081;BME280;37130;55.670;37.596;2022-09-23T08:08:31;99333.44;;;13.37;77.33
51081;BME280;37130;55.670;37.596;2022-09-23T08:10:59;99336.38;;;13.33;77.07
51081;BME280;37130;55.670;37.596;2022-09-23T08:13:27;99334.56;;;13.33;77.49
51081;BME280;37130;55.670;37.596;2022-09-23T08:15:54;99331.75;;;13.36;76.86
51081;BME280;37130;55.670;37.596;2022-09-23T08:18:22;99323.94;;;13.48;76.95
51081;BME280;37130;55.670;37.596;2022-09-23T08:20:49;99328.81;;;13.68;76.98
51081;BME280;37130;55.670;37.596;2022-09-23T08:23:17;99329.88;;;13.93;77.01
51081;BME280;37130;55.670;37.596;2022-09-23T08:25:45;99331.94;;;14.02;75.96
51081;BME280;37130;55.670;37.596;2022-09-23T08:28:15;99316.31;;;14.10;76.24
51081;BME280;37130;55.670;37.596;2022-09-23T08:30:46;99323.81;;;14.31;75.74
51081;BME280;37130;55.670;37.596;2022-09-23T08:33:14;99317.06;;;14.65;75.27
51081;BME280;37130;55.670;37.596;2022-09-23T08:35:48;99314.50;;;14.63;75.43
51081;BME280;37130;55.670;37.596;2022-09-23T08:38:15;99321.00;;;14.72;75.52
51081;BME280;37130;55.670;37.596;2022-09-23T08:40:44;99324.31;;;14.76;75.08
51081;BME280;37130;55.670;37.596;2022-09-23T08:43:16;99329.22;;;14.69;75.31
51081;BME280;37130;55.670;37.596;2022-09-23T08:45:45;99330.94;;;14.57;75.01
51081;BME280;37130;55.670;37.596;2022-09-23T08:48:13;99326.59;;;14.42;74.77
51081;BME280;37130;55.670;37.596;2022-09-23T08:50:42;99321.50;;;14.39;74.68
51081;BME280;37130;55.670;37.596;2022-09-23T08:53:16;99323.81;;;14.43;74.96
51081;BME280;37130;55.670;37.596;2022-09-23T08:55:48;99342.28;;;14.46;74.83
51081;BME280;37130;55.670;37.596;2022-09-23T09:09:20;99347.50;;;14.08;74.61
51081;BME280;37130;55.670;37.596;2022-09-23T09:11:51;99335.28;;;14.18;74.68
51081;BME280;37130;55.670;37.596;2022-09-23T09:14:25;99330.84;;;14.32;74.02
51081;BME280;37130;55.670;37.596;2022-09-23T09:16:57;99330.97;;;14.43;74.18
51081;BME280;37130;55.670;37.596;2022-09-23T09:21:56;99323.25;;;14.78;73.21
51081;BME280;37130;55.670;37.596;2022-09-23T09:24:31;99322.19;;;14.68;72.98
51081;BME280;37130;55.670;37.596;2022-09-23T09:27:00;99309.72;;;14.68;72.67
51081;BME280;37130;55.670;37.596;2022-09-23T09:29:36;99301.94;;;14.65;72.58
51081;BME280;37130;55.670;37.596;2022-09-23T09:34:46;99287.00;;;15.01;72.18
51081;BME280;37130;55.670;37.596;2022-09-23T09:39:45;99285.72;;;15.68;71.69
51081;BME280;37130;55.670;37.596;2022-09-23T09:42:58;99299.66;;;15.84;70.85
51081;BME280;37130;55.670;37.596;2022-09-23T09:45:02;99294.59;;;15.68;70.60
51081;BME280;37130;55.670;37.596;2022-09-23T09:50:17;99300.56;;;15.35;71.26
51081;BME280;37130;55.670;37.596;2022-09-23T09:52:47;99303.56;;;15.30;70.66
51081;BME280;37130;55.670;37.596;2022-09-23T10:05:25;99307.25;;;14.91;70.72
51081;BME280;37130;55.670;37.596;2022-09-23T10:07:53;99303.84;;;14.76;70.62
51081;BME280;37130;55.670;37.596;2022-09-23T10:10:22;99308.31;;;14.63;70.63
51081;BME280;37130;55.670;37.596;2022-09-23T10:12:59;99309.34;;;14.47;70.17
51081;BME280;37130;55.670;37.596;2022-09-23T10:15:41;99297.16;;;14.43;69.99
51081;BME280;37130;55.670;37.596;2022-09-23T10:18:18;99302.63;;;14.42;70.45
51081;BME280;37130;55.670;37.596;2022-09-23T10:20:46;99304.97;;;14.46;70.58
51081;BME280;37130;55.670;37.596;2022-09-23T10:23:15;99298.59;;;14.49;70.63
51081;BME280;37130;55.670;37.596;2022-09-23T10:25:43;99304.16;;;14.72;70.36
51081;BME280;37130;55.670;37.596;2022-09-23T10:31:05;99304.88;;;15.25;70.18
51081;BME280;37130;55.670;37.596;2022-09-23T10:33:33;99302.91;;;15.40;69.78
51081;BME280;37130;55.670;37.596;2022-09-23T10:36:00;99300.38;;;15.25;69.88
51081;BME280;37130;55.670;37.596;2022-09-23T10:38:27;99298.69;;;15.11;69.78
51081;BME280;37130;55.670;37.596;2022-09-23T10:40:55;99286.56;;;14.95;70.14
51081;BME280;37130;55.670;37.596;2022-09-23T10:44:02;99280.47;;;15.05;70.77
51081;BME280;37130;55.670;37.596;2022-09-23T10:46:45;99271.13;;;15.24;70.56
51081;BME280;37130;55.670;37.596;2022-09-23T10:57:00;99255.31;;;15.33;69.26
51081;BME280;37130;55.670;37.596;2022-09-23T11:05:32;99257.66;;;15.62;69.11
51081;BME280;37130;55.670;37.596;2022-09-23T11:11:02;99250.94;;;15.32;68.57
51081;BME280;37130;55.670;37.596;2022-09-23T11:13:42;99240.44;;;15.42;68.26
51081;BME280;37130;55.670;37.596;2022-09-23T11:16:13;99244.13;;;15.52;68.17
51081;BME280;37130;55.670;37.596;2022-09-23T11:26:52;99229.28;;;15.24;68.24
51081;BME280;37130;55.670;37.596;2022-09-23T11:29:32;99237.03;;;15.40;68.42
51081;BME280;37130;55.670;37.596;2022-09-23T11:37:23;99236.31;;;15.38;66.28
51081;BME280;37130;55.670;37.596;2022-09-23T11:42:24;99231.81;;;15.39;66.44
51081;BME280;37130;55.670;37.596;2022-09-23T11:44:55;99221.38;;;15.36;65.73
51081;BME280;37130;55.670;37.596;2022-09-23T11:47:27;99218.66;;;15.48;66.18
51081;BME280;37130;55.670;37.596;2022-09-23T11:49:59;99216.78;;;15.62;66.38
51081;BME280;37130;55.670;37.596;2022-09-23T11:52:39;99222.78;;;15.52;65.94
51081;BME280;37130;55.670;37.596;2022-09-23T11:55:18;99224.94;;;15.23;66.36
51081;BME280;37130;55.670;37.596;2022-09-23T11:57:53;99238.09;;;15.01;66.99
51081;BME280;37130;55.670;37.596;2022-09-23T12:00:32;99245.94;;;14.78;67.06
51081;BME280;37130;55.670;37.596;2022-09-23T12:06:09;99225.47;;;14.66;66.78
51081;BME280;37130;55.670;37.596;2022-09-23T12:08:40;99226.44;;;14.78;66.04
51081;BME280;37130;55.670;37.596;2022-09-23T12:14:12;99254.88;;;14.52;66.48
51081;BME280;37130;55.670;37.596;2022-09-23T12:16:46;99179.13;;;14.17;66.43
51081;BME280;37130;55.670;37.596;2022-09-23T12:27:06;99225.22;;;14.43;66.83
51081;BME280;37130;55.670;37.596;2022-09-23T12:29:37;99230.56;;;14.43;66.71
51081;BME280;37130;55.670;37.596;2022-09-23T12:32:06;99231.13;;;14.36;66.80
51081;BME280;37130;55.670;37.596;2022-09-23T12:34:42;99214.16;;;14.50;66.78
51081;BME280;37130;55.670;37.596;2022-09-23T12:37:25;99214.72;;;14.67;66.50
51081;BME280;37130;55.670;37.596;2022-09-23T12:39:56;99212.34;;;14.76;66.12
51081;BME280;37130;55.670;37.596;2022-09-23T12:42:25;99193.47;;;14.79;66.05
51081;BME280;37130;55.670;37.596;2022-09-23T12:47:42;99186.66;;;15.11;66.12
51081;BME280;37130;55.670;37.596;2022-09-23T12:55:56;99192.81;;;14.88;66.04
51081;BME280;37130;55.670;37.596;2022-09-23T13:01:24;99181.50;;;14.84;65.85
51081;BME280;37130;55.670;37.596;2022-09-23T13:03:53;99188.59;;;14.73;65.18
51081;BME280;37130;55.670;37.596;2022-09-23T13:09:21;99175.28;;;14.60;65.26
51081;BME280;37130;55.670;37.596;2022-09-23T13:11:50;99186.44;;;14.52;66.01
51081;BME280;37130;55.670;37.596;2022-09-23T13:14:20;99184.56;;;14.54;65.84
51081;BME280;37130;55.670;37.596;2022-09-23T13:16:53;99184.13;;;14.60;65.84
51081;BME280;37130;55.670;37.596;2022-09-23T13:29:41;99175.28;;;14.34;65.42
51081;BME280;37130;55.670;37.596;2022-09-23T13:32:14;99187.63;;;14.22;65.94
51081;BME280;37130;55.670;37.596;2022-09-23T13:34:46;99180.91;;;14.04;65.81
51081;BME280;37130;55.670;37.596;2022-09-23T13:37:20;99188.34;;;13.86;65.78
51081;BME280;37130;55.670;37.596;2022-09-23T13:39:49;99177.13;;;13.68;66.22
51081;BME280;37130;55.670;37.596;2022-09-23T13:42:22;99172.19;;;13.62;66.00
51081;BME280;37130;55.670;37.596;2022-09-23T13:44:53;99174.94;;;13.48;66.36
51081;BME280;37130;55.670;37.596;2022-09-23T13:47:24;99171.19;;;13.37;66.66
51081;BME280;37130;55.670;37.596;2022-09-23T13:49:54;99170.09;;;13.27;66.39
51081;BME280;37130;55.670;37.596;2022-09-23T13:52:23;99162.69;;;13.18;66.62
51081;BME280;37130;55.670;37.596;2022-09-23T13:54:51;99161.47;;;13.09;66.94
51081;BME280;37130;55.670;37.596;2022-09-23T13:57:32;99167.09;;;13.05;67.02
51081;BME280;37130;55.670;37.596;2022-09-23T14:00:16;99161.78;;;13.05;67.34
51081;BME280;37130;55.670;37.596;2022-09-23T14:02:43;99161.66;;;13.06;67.35
51081;BME280;37130;55.670;37.596;2022-09-23T14:05:20;99162.44;;;13.08;67.13
51081;BME280;37130;55.670;37.596;2022-09-23T14:07:48;99164.03;;;13.11;67.29
51081;BME280;37130;55.670;37.596;2022-09-23T14:10:18;99156.81;;;13.13;67.50
51081;BME280;37130;55.670;37.596;2022-09-23T14:12:46;99157.94;;;13.23;67.60
51081;BME280;37130;55.670;37.596;2022-09-23T14:15:16;99150.63;;;13.27;67.37
51081;BME280;37130;55.670;37.596;2022-09-23T14:17:48;99141.09;;;13.23;67.13
51081;BME280;37130;55.670;37.596;2022-09-23T14:20:18;99143.88;;;13.21;67.29
51081;BME280;37130;55.670;37.596;2022-09-23T14:22:46;99143.03;;;13.21;67.53
51081;BME280;37130;55.670;37.596;2022-09-23T14:25:14;99136.19;;;13.16;67.72
51081;BME280;37130;55.670;37.596;2022-09-23T14:27:42;99143.13;;;13.19;67.49
51081;BME280;37130;55.670;37.596;2022-09-23T14:30:14;99139.91;;;13.14;67.80
51081;BME280;37130;55.670;37.596;2022-09-23T14:32:42;99133.47;;;13.04;68.15
51081;BME280;37130;55.670;37.596;2022-09-23T14:37:52;99136.41;;;12.86;68.33
51081;BME280;37130;55.670;37.596;2022-09-23T14:45:44;99131.50;;;12.66;68.51
51081;BME280;37130;55.670;37.596;2022-09-23T14:48:15;99130.75;;;12.64;68.67
51081;BME280;37130;55.670;37.596;2022-09-23T14:50:47;99130.94;;;12.61;69.01
51081;BME280;37130;55.670;37.596;2022-09-23T14:55:52;99130.75;;;12.49;69.08
51081;BME280;37130;55.670;37.596;2022-09-23T14:58:21;99120.13;;;12.49;68.95
51081;BME280;37130;55.670;37.596;2022-09-23T15:00:59;99118.34;;;12.50;69.24
51081;BME280;37130;55.670;37.596;2022-09-23T15:03:27;99110.53;;;12.47;68.83
51081;BME280;37130;55.670;37.596;2022-09-23T15:05:55;99115.31;;;12.42;69.12
51081;BME280;37130;55.670;37.596;2022-09-23T15:08:25;99109.31;;;12.38;69.08
51081;BME280;37130;55.670;37.596;2022-09-23T15:10:53;99107.63;;;12.37;69.11
51081;BME280;37130;55.670;37.596;2022-09-23T15:13:26;99106.94;;;12.34;69.10
51081;BME280;37130;55.670;37.596;2022-09-23T15:15:56;99108.88;;;12.32;69.28
51081;BME280;37130;55.670;37.596;2022-09-23T15:18:24;99109.16;;;12.27;69.15
51081;BME280;37130;55.670;37.596;2022-09-23T15:20:53;99113.91;;;12.22;69.29
51081;BME280;37130;55.670;37.596;2022-09-23T15:26:02;99115.22;;;12.29;69.46
51081;BME280;37130;55.670;37.596;2022-09-23T15:28:31;99114.91;;;12.34;69.77
51081;BME280;37130;55.670;37.596;2022-09-23T15:30:59;99117.56;;;12.34;69.69
51081;BME280;37130;55.670;37.596;2022-09-23T15:33:26;99118.53;;;12.33;69.88
51081;BME280;37130;55.670;37.596;2022-09-23T15:35:56;99114.56;;;12.25;70.04
51081;BME280;37130;55.670;37.596;2022-09-23T15:38:24;99124.41;;;12.23;69.66
51081;BME280;37130;55.670;37.596;2022-09-23T15:40:53;99127.25;;;12.20;69.57
51081;BME280;37130;55.670;37.596;2022-09-23T15:43:21;99127.72;;;12.13;69.61
51081;BME280;37130;55.670;37.596;2022-09-23T15:45:53;99119.09;;;12.09;69.86
51081;BME280;37130;55.670;37.596;2022-09-23T15:48:26;99118.91;;;12.12;69.94
51081;BME280;37130;55.670;37.596;2022-09-23T15:50:54;99112.09;;;12.08;69.99
51081;BME280;37130;55.670;37.596;2022-09-23T15:53:25;99115.97;;;12.02;69.90